createdAt,value
2022-08-03T00:01:26.443Z,3.40
2022-08-03T00:03:52.690Z,3.55
2022-08-03T00:06:19.169Z,3.33
2022-08-03T00:08:45.426Z,3.75
2022-08-03T00:11:11.708Z,3.70
2022-08-03T00:13:38.104Z,3.72
2022-08-03T00:16:04.599Z,3.88
2022-08-03T00:18:30.924Z,3.30
2022-08-03T00:20:57.199Z,3.55
2022-08-03T00:23:23.536Z,3.17
2022-08-03T00:25:49.922Z,3.42
2022-08-03T00:28:16.228Z,3.55
2022-08-03T00:30:42.573Z,3.67
2022-08-03T00:33:11.051Z,3.53
2022-08-03T00:35:50.895Z,3.40
2022-08-03T00:38:17.966Z,3.28
2022-08-03T00:40:44.231Z,3.45
2022-08-03T00:43:11.474Z,3.65
2022-08-03T00:45:38.960Z,3.65
2022-08-03T00:48:06.415Z,3.35
2022-08-03T00:50:53.293Z,3.40
2022-08-03T00:53:20.819Z,3.40
2022-08-03T00:55:47.078Z,3.40
2022-08-03T00:58:13.363Z,3.75
2022-08-03T01:00:40.328Z,3.90
2022-08-03T01:03:07.329Z,3.63
2022-08-03T01:05:38.190Z,3.90
2022-08-03T01:08:07.214Z,3.72
2022-08-03T01:10:36.499Z,4.20
2022-08-03T01:13:59.115Z,3.15
2022-08-03T01:16:12.253Z,2.95
2022-08-03T01:18:38.560Z,3.45
2022-08-03T01:21:09.462Z,3.65
2022-08-03T01:23:37.125Z,3.90
2022-08-03T01:26:09.635Z,3.83
2022-08-03T01:28:51.902Z,3.80
2022-08-03T01:31:20.781Z,3.80
2022-08-03T01:33:49.807Z,3.95
2022-08-03T01:36:17.666Z,3.55
2022-08-03T01:38:49.456Z,3.42
2022-08-03T01:41:18.740Z,3.72
2022-08-03T01:44:27.760Z,3.80
2022-08-03T01:46:34.959Z,3.80
2022-08-03T01:49:09.242Z,3.72
2022-08-03T01:52:02.668Z,3.70
2022-08-03T01:54:23.933Z,3.60
2022-08-03T01:59:34.402Z,3.83
2022-08-03T02:02:32.145Z,3.80
2022-08-03T02:04:48.901Z,3.90
2022-08-03T02:07:16.149Z,3.40
2022-08-03T02:09:43.824Z,3.72
2022-08-03T02:12:11.072Z,3.83
2022-08-03T02:14:39.236Z,3.47
2022-08-03T02:17:09.531Z,3.40
2022-08-03T02:19:36.264Z,4.13
2022-08-03T02:22:03.492Z,3.53
2022-08-03T02:24:31.689Z,3.85
2022-08-03T02:26:58.696Z,3.80
2022-08-03T02:29:39.160Z,3.92
2022-08-03T02:32:09.735Z,3.72
2022-08-03T02:34:36.864Z,3.95
2022-08-03T02:37:04.470Z,4.10
2022-08-03T02:39:32.137Z,3.90
2022-08-03T02:42:02.425Z,3.60
2022-08-03T02:44:32.441Z,3.90
2022-08-03T02:47:01.058Z,4.10
2022-08-03T02:49:41.148Z,3.65
2022-08-03T02:52:15.783Z,4.05
2022-08-03T02:54:44.133Z,3.88
2022-08-03T02:57:11.257Z,4.00
2022-08-03T02:59:38.745Z,4.10
2022-08-03T03:02:05.186Z,4.13
2022-08-03T03:04:33.078Z,4.30
2022-08-03T03:07:00.112Z,3.80
2022-08-03T03:09:29.175Z,3.60
2022-08-03T03:12:09.003Z,4.28
2022-08-03T03:14:36.687Z,4.13
2022-08-03T03:17:03.254Z,4.40
2022-08-03T03:19:30.843Z,4.30
2022-08-03T03:21:58.785Z,3.97
2022-08-03T03:24:25.366Z,4.10
2022-08-03T03:26:52.091Z,3.72
2022-08-03T03:29:18.541Z,4.40
2022-08-03T03:31:44.987Z,4.25
2022-08-03T03:34:11.317Z,3.70
2022-08-03T03:36:37.600Z,3.95
2022-08-03T03:39:14.222Z,4.10
2022-08-03T03:41:42.182Z,4.05
2022-08-03T03:44:08.505Z,3.65
2022-08-03T03:46:34.837Z,3.92
2022-08-03T03:49:01.187Z,3.92
2022-08-03T03:51:27.481Z,3.70
2022-08-03T03:53:54.775Z,3.83
2022-08-03T03:56:21.130Z,4.22
2022-08-03T03:58:47.402Z,3.97
2022-08-03T04:01:13.798Z,3.85
2022-08-03T04:03:40.145Z,4.28
2022-08-03T04:06:25.038Z,3.90
2022-08-03T04:09:10.196Z,3.67
2022-08-03T04:11:41.597Z,3.53
2022-08-03T04:14:12.784Z,4.03
2022-08-03T04:16:43.772Z,3.95
2022-08-03T04:19:26.487Z,4.40
2022-08-03T04:21:56.991Z,4.28
2022-08-03T04:24:26.487Z,4.25
2022-08-03T04:26:53.304Z,3.92
2022-08-03T04:29:20.738Z,4.03
2022-08-03T04:31:48.214Z,4.00
2022-08-03T04:34:14.474Z,3.80
2022-08-03T04:36:47.539Z,3.97
2022-08-03T04:39:16.402Z,3.97
2022-08-03T04:42:07.417Z,4.20
2022-08-03T04:44:31.125Z,3.65
2022-08-03T04:46:58.089Z,4.43
2022-08-03T04:49:24.616Z,3.28
2022-08-03T04:51:51.204Z,3.80
2022-08-03T04:54:17.554Z,4.28
2022-08-03T04:56:44.230Z,4.10
2022-08-03T04:59:10.703Z,4.30
2022-08-03T05:01:37.138Z,4.47
2022-08-03T05:04:03.700Z,4.25
2022-08-03T05:06:30.051Z,4.40
2022-08-03T05:08:56.772Z,4.05
2022-08-03T05:11:23.116Z,4.03
2022-08-03T05:13:49.671Z,4.15
2022-08-03T05:16:15.938Z,4.05
2022-08-03T05:18:42.553Z,4.07
2022-08-03T05:21:09.411Z,4.30
2022-08-03T05:23:36.011Z,4.28
2022-08-03T05:26:02.279Z,4.57
2022-08-03T05:28:28.542Z,4.20
2022-08-03T05:30:54.901Z,4.38
2022-08-03T05:33:21.220Z,4.13
2022-08-03T05:36:00.784Z,3.83
2022-08-03T05:38:34.684Z,3.85
2022-08-03T05:41:21.325Z,3.63
2022-08-03T05:43:48.485Z,3.78
2022-08-03T05:46:15.034Z,3.50
2022-08-03T05:48:41.741Z,3.63
2022-08-03T05:51:11.199Z,4.13
2022-08-03T05:53:38.947Z,3.90
2022-08-03T05:56:14.610Z,3.55
2022-08-03T05:58:45.991Z,3.70
2022-08-03T06:01:12.540Z,3.85
2022-08-03T06:03:38.867Z,3.65
2022-08-03T06:06:05.212Z,4.07
2022-08-03T06:08:31.573Z,3.95
2022-08-03T06:10:57.857Z,3.75
2022-08-03T06:13:24.168Z,3.50
2022-08-03T06:15:50.455Z,4.25
2022-08-03T06:18:16.720Z,4.10
2022-08-03T06:20:43.303Z,3.63
2022-08-03T06:23:16.003Z,3.50
2022-08-03T06:25:42.773Z,3.17
2022-08-03T06:28:14.973Z,3.58
2022-08-03T06:30:50.360Z,3.78
2022-08-03T06:33:16.666Z,3.25
2022-08-03T06:35:42.950Z,3.20
2022-08-03T06:38:11.519Z,3.53
2022-08-03T06:40:40.975Z,3.65
2022-08-03T06:43:12.087Z,3.50
2022-08-03T06:45:39.259Z,3.25
2022-08-03T06:48:07.189Z,3.20
2022-08-03T06:50:34.166Z,3.20
2022-08-03T06:53:01.025Z,3.10
2022-08-03T06:55:27.565Z,3.65
2022-08-03T06:57:54.211Z,3.30
2022-08-03T07:00:26.324Z,3.40
2022-08-03T07:02:57.627Z,3.15
2022-08-03T07:05:24.616Z,3.58
2022-08-03T07:07:50.963Z,3.50
2022-08-03T07:10:17.254Z,3.40
2022-08-03T07:12:55.557Z,3.30
2022-08-03T07:15:54.580Z,3.25
2022-08-03T07:18:09.993Z,3.30
2022-08-03T07:20:36.632Z,2.92
2022-08-03T07:23:03.051Z,2.88
2022-08-03T07:25:29.361Z,3.78
2022-08-03T07:27:55.617Z,2.88
2022-08-03T07:30:22.649Z,2.78
2022-08-03T07:32:50.260Z,3.17
2022-08-03T07:35:24.957Z,3.15
2022-08-03T07:37:54.508Z,3.22
2022-08-03T07:40:22.139Z,3.15
2022-08-03T07:42:48.537Z,3.10
2022-08-03T07:45:19.594Z,2.95
2022-08-03T07:47:46.187Z,2.50
2022-08-03T07:50:20.165Z,2.58
2022-08-03T07:52:49.556Z,2.55
2022-08-03T07:55:16.892Z,2.45
2022-08-03T07:57:43.224Z,2.55
2022-08-03T08:00:17.447Z,2.92
2022-08-03T08:02:44.195Z,2.60
2022-08-03T08:05:11.096Z,2.60
2022-08-03T08:07:38.103Z,2.60
2022-08-03T08:10:05.824Z,2.58
2022-08-03T08:12:32.152Z,2.28
2022-08-03T08:14:58.593Z,2.47
2022-08-03T08:17:24.945Z,2.30
2022-08-03T08:19:51.835Z,2.63
2022-08-03T08:22:30.623Z,2.45
2022-08-03T08:25:01.181Z,2.20
2022-08-03T08:27:27.785Z,2.55
2022-08-03T08:29:55.271Z,2.05
2022-08-03T08:32:22.920Z,3.50
2022-08-03T08:34:49.184Z,3.00
2022-08-03T08:37:15.476Z,3.17
2022-08-03T08:39:41.716Z,2.60
2022-08-03T08:42:08.019Z,2.65
2022-08-03T08:44:34.352Z,2.50
2022-08-03T08:47:02.529Z,2.47
2022-08-03T08:49:29.607Z,2.30
2022-08-03T08:52:00.755Z,2.63
2022-08-03T08:54:28.139Z,2.30
2022-08-03T08:56:55.963Z,2.80
2022-08-03T08:59:22.422Z,2.50
2022-08-03T09:01:48.692Z,2.35
2022-08-03T09:04:15.187Z,2.58
2022-08-03T09:06:47.319Z,2.40
2022-08-03T09:10:04.585Z,2.20
2022-08-03T09:12:38.850Z,2.20
2022-08-03T09:15:16.052Z,2.17
2022-08-03T09:17:46.399Z,2.40
2022-08-03T09:20:15.310Z,2.00
2022-08-03T09:23:51.680Z,2.17
2022-08-03T09:25:58.277Z,2.35
2022-08-03T09:28:58.154Z,2.53
2022-08-03T09:31:19.839Z,2.47
2022-08-03T09:33:49.162Z,2.10
2022-08-03T09:36:34.513Z,2.17
2022-08-03T09:39:02.472Z,1.98
2022-08-03T09:41:28.743Z,1.90
2022-08-03T09:43:57.027Z,1.90
2022-08-03T09:46:23.450Z,2.22
2022-08-03T09:48:49.773Z,2.10
2022-08-03T09:52:04.963Z,2.03
2022-08-03T09:54:09.616Z,1.77
2022-08-03T09:56:45.306Z,1.42
2022-08-03T09:59:12.890Z,1.58
2022-08-03T10:01:41.767Z,1.60
2022-08-03T10:04:13.785Z,1.40
2022-08-03T10:06:40.245Z,1.40
2022-08-03T10:09:07.896Z,1.35
2022-08-03T10:11:41.155Z,1.63
2022-08-03T10:14:09.107Z,1.48
2022-08-03T10:16:36.439Z,2.08
2022-08-03T10:19:07.303Z,1.30
2022-08-03T10:21:37.308Z,1.27
2022-08-03T10:24:05.008Z,1.55
2022-08-03T10:26:32.410Z,1.35
2022-08-03T10:28:59.765Z,1.50
2022-08-03T10:31:26.286Z,1.40
2022-08-03T10:33:55.971Z,1.35
2022-08-03T10:36:23.739Z,1.30
2022-08-03T10:38:53.615Z,1.17
2022-08-03T10:41:21.099Z,1.80
2022-08-03T10:43:50.302Z,1.30
2022-08-03T10:46:19.023Z,1.35
2022-08-03T10:48:45.655Z,1.35
2022-08-03T10:51:12.332Z,1.60
2022-08-03T10:53:39.421Z,1.60
2022-08-03T10:56:44.352Z,1.33
2022-08-03T10:59:11.278Z,1.63
2022-08-03T11:01:59.851Z,1.67
2022-08-03T11:04:29.193Z,1.58
2022-08-03T11:07:16.456Z,1.75
2022-08-03T11:09:43.934Z,1.85
2022-08-03T11:12:30.661Z,1.92
2022-08-03T11:14:59.477Z,2.00
2022-08-03T11:17:25.778Z,1.77
2022-08-03T11:19:56.859Z,1.35
2022-08-03T11:22:24.978Z,2.10
2022-08-03T11:24:54.334Z,1.50
2022-08-03T11:27:24.741Z,1.50
2022-08-03T11:30:01.742Z,1.90
2022-08-03T11:32:37.077Z,1.73
2022-08-03T11:35:11.095Z,1.55
2022-08-03T11:38:03.435Z,1.88
2022-08-03T11:40:35.053Z,1.45
2022-08-03T11:43:01.650Z,1.90
2022-08-03T11:45:27.995Z,1.50
2022-08-03T11:47:55.428Z,1.85
2022-08-03T11:50:22.427Z,1.70
2022-08-03T11:52:49.387Z,1.73
2022-08-03T11:55:17.372Z,2.30
2022-08-03T11:59:16.499Z,1.80
2022-08-03T12:00:32.650Z,1.83
2022-08-03T12:03:18.368Z,1.90
2022-08-03T12:05:52.834Z,1.77
2022-08-03T12:08:29.946Z,1.88
2022-08-03T12:10:57.358Z,2.08
2022-08-03T12:14:45.643Z,2.05
2022-08-03T12:16:10.719Z,1.88
2022-08-03T12:18:37.025Z,1.75
2022-08-03T12:21:05.391Z,1.70
2022-08-03T12:23:34.853Z,1.70
2022-08-03T12:26:05.104Z,1.55
2022-08-03T12:28:37.611Z,1.40
2022-08-03T12:31:09.276Z,1.88
2022-08-03T12:33:54.301Z,1.60
2022-08-03T12:36:20.718Z,1.73
2022-08-03T12:38:53.897Z,1.77
2022-08-03T12:41:26.959Z,1.60
2022-08-03T12:43:54.214Z,1.33
2022-08-03T12:46:20.575Z,1.67
2022-08-03T12:49:06.898Z,1.60
2022-08-03T12:51:35.014Z,1.80
2022-08-03T12:54:01.818Z,1.95
2022-08-03T12:56:28.415Z,1.17
2022-08-03T12:58:54.758Z,1.45
2022-08-03T13:01:24.158Z,1.75
2022-08-03T13:03:53.629Z,1.42
2022-08-03T13:06:24.592Z,1.75
2022-08-03T13:09:02.163Z,1.30
2022-08-03T13:11:43.447Z,1.70
2022-08-03T13:14:19.523Z,1.50
2022-08-03T13:16:46.634Z,1.55
2022-08-03T13:19:15.385Z,1.40
2022-08-03T13:22:03.209Z,1.48
2022-08-03T13:24:29.277Z,1.70
2022-08-03T13:26:56.966Z,1.52
2022-08-03T13:29:23.315Z,2.00
2022-08-03T13:31:50.431Z,1.60
2022-08-03T13:34:22.267Z,1.50
2022-08-03T13:39:57.828Z,1.35
2022-08-03T13:42:22.377Z,1.38
2022-08-03T13:44:48.680Z,1.30
2022-08-03T13:47:14.934Z,1.60
2022-08-03T13:49:41.205Z,1.98
2022-08-03T13:52:07.543Z,1.60
2022-08-03T13:54:33.924Z,1.80
2022-08-03T13:58:02.188Z,1.40
2022-08-03T13:59:46.560Z,1.30
2022-08-03T14:02:13.038Z,1.35
2022-08-03T14:04:39.349Z,1.70
2022-08-03T14:07:05.744Z,1.50
2022-08-03T14:09:32.182Z,1.45
2022-08-03T14:12:07.587Z,1.42
2022-08-03T14:14:34.891Z,1.48
2022-08-03T14:17:01.193Z,1.50
2022-08-03T14:19:28.788Z,1.40
2022-08-03T14:22:06.190Z,1.80
2022-08-03T14:24:33.049Z,1.20
2022-08-03T14:27:07.179Z,1.15
2022-08-03T14:29:35.411Z,1.50
2022-08-03T14:32:10.798Z,1.42
2022-08-03T14:34:39.172Z,1.55
2022-08-03T14:37:05.534Z,1.55
2022-08-03T14:39:58.275Z,1.83
2022-08-03T14:42:18.064Z,1.38
2022-08-03T14:44:44.371Z,1.30
2022-08-03T14:47:10.743Z,1.30
2022-08-03T14:50:38.586Z,1.52
2022-08-03T14:52:23.283Z,1.35
2022-08-03T14:54:49.608Z,1.50
2022-08-03T14:57:15.872Z,1.08
2022-08-03T14:59:56.064Z,1.45
2022-08-03T15:02:24.436Z,1.48
2022-08-03T15:04:51.142Z,1.48
2022-08-03T15:07:17.828Z,1.40
2022-08-03T15:09:44.146Z,1.20
2022-08-03T15:12:10.517Z,1.30
2022-08-03T15:14:37.899Z,1.60
2022-08-03T15:17:04.579Z,1.50
2022-08-03T15:20:05.564Z,1.42
2022-08-03T15:22:19.174Z,1.67
2022-08-03T15:24:47.110Z,1.27
2022-08-03T15:27:13.403Z,1.45
2022-08-03T15:30:05.357Z,1.48
2022-08-03T15:32:26.003Z,1.38
2022-08-03T15:34:52.712Z,1.50
2022-08-03T15:37:20.632Z,1.40
2022-08-03T15:39:59.968Z,1.20
2022-08-03T15:42:27.934Z,1.52
2022-08-03T15:44:54.635Z,1.30
2022-08-03T15:47:21.335Z,1.70
2022-08-03T15:49:47.814Z,1.80
2022-08-03T15:52:14.088Z,1.50
2022-08-03T15:54:40.347Z,1.55
2022-08-03T15:57:07.004Z,1.45
2022-08-03T15:59:33.373Z,1.42
2022-08-03T16:01:59.769Z,1.63
2022-08-03T16:04:26.291Z,1.52
2022-08-03T16:06:52.624Z,1.45
2022-08-03T16:09:23.112Z,1.50
2022-08-03T16:11:50.901Z,1.55
2022-08-03T16:14:34.391Z,1.48
2022-08-03T16:17:04.155Z,1.60
2022-08-03T16:19:30.475Z,1.50
2022-08-03T16:21:56.717Z,1.30
2022-08-03T16:24:27.965Z,1.33
2022-08-03T16:26:54.709Z,1.33
2022-08-03T16:29:23.377Z,1.20
2022-08-03T16:31:51.146Z,1.23
2022-08-03T16:34:17.886Z,1.40
2022-08-03T16:36:45.360Z,1.45
2022-08-03T16:39:11.657Z,1.20
2022-08-03T16:42:00.490Z,1.23
2022-08-03T16:44:24.440Z,1.50
2022-08-03T16:46:53.356Z,1.35
2022-08-03T16:49:54.806Z,1.40
2022-08-03T16:52:07.136Z,1.38
2022-08-03T16:54:33.584Z,1.25
2022-08-03T16:57:01.202Z,1.17
2022-08-03T16:59:36.385Z,1.35
2022-08-03T17:02:09.530Z,1.33
2022-08-03T17:04:36.638Z,1.48
2022-08-03T17:07:06.919Z,1.38
2022-08-03T17:09:39.063Z,1.17
2022-08-03T17:12:06.238Z,1.20
2022-08-03T17:14:34.701Z,1.00
2022-08-03T17:17:01.717Z,1.25
2022-08-03T17:19:28.884Z,1.30
2022-08-03T17:22:04.594Z,1.00
2022-08-03T17:24:32.748Z,1.38
2022-08-03T17:27:01.193Z,0.93
2022-08-03T17:29:29.757Z,1.08
2022-08-03T17:31:56.500Z,1.00
2022-08-03T17:34:26.477Z,1.15
2022-08-03T17:37:27.403Z,1.03
2022-08-03T17:39:58.365Z,1.00
2022-08-03T17:42:30.569Z,1.08
2022-08-03T17:44:58.336Z,1.23
2022-08-03T17:47:40.948Z,1.00
2022-08-03T17:50:24.629Z,0.80
2022-08-03T17:52:56.054Z,1.20
2022-08-03T17:55:56.942Z,1.30
2022-08-03T17:58:13.430Z,1.02
2022-08-03T18:03:57.044Z,0.90
2022-08-03T18:06:28.727Z,1.13
2022-08-03T18:08:56.438Z,1.20
2022-08-03T18:11:23.460Z,1.00
2022-08-03T18:13:58.812Z,0.90
2022-08-03T18:16:38.216Z,1.25
2022-08-03T18:19:09.330Z,1.13
2022-08-03T18:22:03.250Z,1.00
2022-08-03T18:24:25.711Z,1.10
2022-08-03T18:26:54.353Z,1.10
2022-08-03T18:29:25.762Z,1.17
2022-08-03T18:32:02.588Z,0.93
2022-08-03T18:34:33.582Z,0.95
2022-08-03T18:37:01.196Z,1.00
2022-08-03T18:39:35.767Z,1.08
2022-08-03T18:42:19.620Z,1.20
2022-08-03T18:44:53.968Z,1.00
2022-08-03T18:47:50.666Z,1.05
2022-08-03T18:50:24.324Z,1.13
2022-08-03T18:52:53.242Z,1.35
2022-08-03T18:56:01.266Z,1.30
2022-08-03T18:58:43.585Z,1.30
2022-08-03T19:01:15.461Z,2.10
2022-08-03T19:04:08.111Z,1.05
2022-08-03T19:06:38.557Z,1.35
2022-08-03T19:09:12.774Z,1.60
2022-08-03T19:12:12.593Z,1.33
2022-08-03T19:14:30.042Z,1.15
2022-08-03T19:17:04.654Z,1.35
2022-08-03T19:19:43.389Z,1.17
2022-08-03T19:22:11.590Z,1.30
2022-08-03T19:24:39.717Z,1.35
2022-08-03T19:27:10.603Z,1.20
2022-08-03T19:29:57.979Z,1.10
2022-08-03T19:32:25.810Z,1.38
2022-08-03T19:34:52.309Z,1.20
2022-08-03T19:37:19.107Z,1.15
2022-08-03T19:39:56.611Z,1.30
2022-08-03T19:42:31.077Z,1.10
2022-08-03T19:45:11.432Z,1.33
2022-08-03T19:47:45.242Z,1.33
2022-08-03T19:50:14.341Z,2.80
2022-08-03T19:52:43.735Z,1.50
2022-08-03T19:55:12.219Z,1.83
2022-08-03T19:57:42.221Z,2.00
2022-08-03T20:00:11.689Z,1.77
2022-08-03T20:02:38.486Z,1.58
2022-08-03T20:05:05.141Z,3.13
2022-08-03T20:07:41.991Z,6.43
2022-08-03T20:10:14.722Z,2.50
2022-08-03T20:12:43.317Z,2.65
2022-08-03T20:15:10.514Z,2.20
2022-08-03T20:17:55.254Z,2.25
2022-08-03T20:20:28.442Z,2.00
2022-08-03T20:22:57.667Z,2.00
2022-08-03T20:25:38.068Z,2.38
2022-08-03T20:30:33.857Z,1.88
2022-08-03T20:33:00.177Z,2.03
2022-08-03T20:35:26.953Z,2.08
2022-08-03T20:37:54.294Z,2.33
2022-08-03T20:40:21.826Z,1.70
2022-08-03T20:42:48.141Z,1.90
2022-08-03T20:45:59.074Z,2.13
2022-08-03T20:48:01.013Z,1.90
2022-08-03T20:50:28.466Z,2.00
2022-08-03T20:52:54.782Z,1.70
2022-08-03T20:55:48.265Z,1.90
2022-08-03T20:58:07.650Z,2.20
2022-08-03T21:00:33.942Z,2.05
2022-08-03T21:03:00.358Z,2.20
2022-08-03T21:05:31.141Z,1.95
2022-08-03T21:08:15.519Z,2.20
2022-08-03T21:10:42.805Z,1.73
2022-08-03T21:13:17.429Z,2.42
2022-08-03T21:16:02.644Z,1.83
2022-08-03T21:18:36.403Z,2.00
2022-08-03T21:21:03.316Z,1.55
2022-08-03T21:23:35.136Z,2.15
2022-08-03T21:26:14.357Z,1.85
2022-08-03T21:28:40.867Z,1.73
2022-08-03T21:31:07.912Z,1.80
2022-08-03T21:33:34.726Z,1.48
2022-08-03T21:36:01.989Z,1.83
2022-08-03T21:38:30.479Z,2.00
2022-08-03T21:40:57.108Z,2.03
2022-08-03T21:43:23.623Z,2.03
2022-08-03T21:45:52.531Z,1.60
2022-08-03T21:48:21.443Z,1.98
2022-08-03T21:50:50.812Z,1.60
2022-08-03T21:53:17.602Z,2.05
2022-08-03T21:55:50.501Z,2.10
2022-08-03T21:58:17.441Z,2.08
2022-08-03T22:00:44.458Z,2.13
2022-08-03T22:03:17.248Z,2.13
2022-08-03T22:05:44.488Z,2.08
2022-08-03T22:08:12.510Z,2.03
2022-08-03T22:10:39.122Z,2.10
2022-08-03T22:13:05.819Z,2.33
2022-08-03T22:15:32.307Z,1.83
2022-08-03T22:17:59.038Z,2.35
2022-08-03T22:20:25.383Z,1.90
2022-08-03T22:22:55.165Z,1.80
2022-08-03T22:25:24.125Z,2.08
2022-08-03T22:27:51.577Z,2.08
2022-08-03T22:30:18.541Z,2.20
2022-08-03T22:32:45.324Z,1.98
2022-08-03T22:35:12.605Z,2.22
2022-08-03T22:37:39.640Z,2.47
2022-08-03T22:40:09.225Z,2.58
2022-08-03T22:42:35.859Z,2.10
2022-08-03T22:45:05.376Z,1.95
2022-08-03T22:47:32.722Z,1.95
2022-08-03T22:50:31.878Z,1.90
2022-08-03T22:52:45.420Z,2.03
2022-08-03T22:55:13.001Z,1.70
2022-08-03T22:57:56.010Z,2.03
2022-08-03T23:00:23.006Z,2.05
2022-08-03T23:02:50.913Z,2.17
2022-08-03T23:05:59.642Z,2.05
2022-08-03T23:08:08.457Z,1.88
2022-08-03T23:10:35.996Z,1.90
2022-08-03T23:13:02.591Z,2.03
2022-08-03T23:15:30.227Z,2.17
2022-08-03T23:17:58.601Z,1.83
2022-08-03T23:20:26.577Z,2.00
2022-08-03T23:22:54.205Z,2.05
2022-08-03T23:25:21.831Z,2.00
2022-08-03T23:27:49.197Z,1.77
2022-08-03T23:30:32.717Z,2.17
2022-08-03T23:32:59.445Z,2.00
2022-08-03T23:36:20.178Z,1.98
2022-08-03T23:38:34.094Z,2.00
2022-08-03T23:41:01.953Z,2.00
2022-08-03T23:43:50.685Z,2.00
2022-08-03T23:46:19.644Z,2.13
2022-08-03T23:48:45.924Z,1.92
2022-08-03T23:51:30.818Z,2.15
2022-08-03T23:54:03.223Z,2.08
2022-08-03T23:56:45.476Z,2.25
2022-08-03T23:59:17.967Z,2.13
